Syringa, Virginia
Current Conditions -  °F | °C
As of 4:15 PM on Monday 22 Dec 2014 (Local Time) from KW75 Reporting Station
Overcast Overcast  
Wind Chill: 36°   Ceiling: 500
Heat Index: 41°   Visibility: 2.5mi
Dew Point: 40°   Wind: 7mph
Humidity: 95%   Direction: 20°NNE
Pressure: 30.06"   Gusts: NA
Location:  37.5982°N, 76.4579°W
Report Text: KW75 222115Z AUTO 02006KT 2 1/2SM OVC005 05/04 A3006 RMK AO1 T00500042
Loading
Personal Weather Stations






























Interactive Weather Map New forecast layout! Learn more

10-Day Weather Forecast

Advertisements
Track Severe Weather on mobile